createdAt,value
2019-04-12T00:00:25.015Z,8.90
2019-04-12T00:02:53.558Z,8.80
2019-04-12T00:05:22.408Z,8.80
2019-04-12T00:07:51.036Z,8.90
2019-04-12T00:10:19.906Z,8.80
2019-04-12T00:12:48.432Z,8.80
2019-04-12T00:15:16.912Z,8.80
2019-04-12T00:17:45.386Z,8.70
2019-04-12T00:20:14.396Z,8.70
2019-04-12T00:22:45.456Z,8.70
2019-04-12T00:25:14.916Z,8.70
2019-04-12T00:27:43.712Z,8.70
2019-04-12T00:30:12.490Z,8.80
2019-04-12T00:32:41.431Z,8.70
2019-04-12T00:35:10.257Z,8.70
2019-04-12T00:37:39.114Z,8.70
2019-04-12T00:40:08.079Z,8.70
2019-04-12T00:42:36.562Z,8.60
2019-04-12T00:45:07.027Z,8.50
2019-04-12T00:47:39.408Z,8.60
2019-04-12T00:50:06.415Z,8.60
2019-04-12T00:52:35.382Z,8.50
2019-04-12T00:55:05.316Z,8.50
2019-04-12T00:57:34.186Z,8.40
2019-04-12T01:00:03.034Z,8.30
2019-04-12T01:02:39.343Z,8.20
2019-04-12T01:05:27.606Z,8.20
2019-04-12T01:08:07.095Z,8.20
2019-04-12T01:10:37.309Z,8.10
2019-04-12T01:13:06.667Z,8.20
2019-04-12T01:15:35.926Z,8.30
2019-04-12T01:18:04.728Z,8.30
2019-04-12T01:20:36.382Z,8.30
2019-04-12T01:23:09.619Z,8.40
2019-04-12T01:25:36.811Z,8.30
2019-04-12T01:28:05.916Z,8.30
2019-04-12T01:30:34.551Z,8.20
2019-04-12T01:33:03.118Z,8.20
2019-04-12T01:35:31.993Z,8.20
2019-04-12T01:38:01.361Z,8.20
2019-04-12T01:40:30.222Z,8.10
2019-04-12T01:42:58.814Z,8.10
2019-04-12T01:45:27.693Z,8.20
2019-04-12T01:47:56.197Z,8.10
2019-04-12T01:50:25.074Z,8.00
2019-04-12T01:52:53.885Z,8.20
2019-04-12T01:55:22.788Z,8.20
2019-04-12T01:57:51.329Z,8.30
2019-04-12T02:00:20.031Z,8.40
2019-04-12T02:02:48.533Z,8.30
2019-04-12T02:05:19.214Z,8.30
2019-04-12T02:07:47.329Z,8.30
2019-04-12T02:10:16.554Z,8.10
2019-04-12T02:12:45.066Z,8.00
2019-04-12T02:15:14.446Z,7.90
2019-04-12T02:17:43.218Z,7.90
2019-04-12T02:20:12.505Z,7.80
2019-04-12T02:22:40.982Z,7.70
2019-04-12T02:25:20.240Z,7.80
2019-04-12T02:27:40.010Z,7.80
2019-04-12T02:30:11.051Z,7.80
2019-04-12T02:32:58.648Z,7.80
2019-04-12T02:35:40.926Z,7.80
2019-04-12T02:38:10.221Z,7.70
2019-04-12T02:40:40.134Z,7.70
2019-04-12T02:43:11.229Z,7.70
2019-04-12T02:45:42.930Z,7.80
2019-04-12T02:48:15.333Z,7.80
2019-04-12T02:50:47.795Z,7.80
2019-04-12T02:53:36.454Z,7.80
2019-04-12T02:56:10.366Z,7.80
2019-04-12T02:58:43.810Z,7.90
2019-04-12T03:01:17.693Z,7.90
2019-04-12T03:03:46.297Z,7.90
2019-04-12T03:06:15.317Z,7.80
2019-04-12T03:08:43.975Z,7.80
2019-04-12T03:11:12.920Z,7.80
2019-04-12T03:13:42.162Z,7.80
2019-04-12T03:16:10.967Z,7.80
2019-04-12T03:18:40.024Z,7.70
2019-04-12T03:21:09.076Z,7.70
2019-04-12T03:23:38.058Z,7.80
2019-04-12T03:26:07.025Z,7.80
2019-04-12T03:28:36.255Z,7.70
2019-04-12T03:31:05.023Z,7.70
2019-04-12T03:33:34.033Z,7.70
2019-04-12T03:36:03.283Z,7.70
2019-04-12T03:38:33.012Z,7.60
2019-04-12T03:41:02.832Z,7.60
2019-04-12T03:43:31.598Z,7.60
2019-04-12T03:46:00.331Z,7.60
2019-04-12T03:48:29.327Z,7.70
2019-04-12T03:50:58.261Z,7.70
2019-04-12T03:53:27.208Z,7.80
2019-04-12T03:56:07.308Z,7.80
2019-04-12T03:58:26.560Z,7.80
2019-04-12T04:00:55.553Z,7.80
2019-04-12T04:03:24.286Z,7.90
2019-04-12T04:05:53.788Z,7.90
2019-04-12T04:08:22.349Z,8.00
2019-04-12T04:10:50.903Z,7.90
2019-04-12T04:13:19.521Z,7.90
2019-04-12T04:15:49.751Z,7.80
2019-04-12T04:18:23.233Z,7.80
2019-04-12T04:20:56.579Z,7.80
2019-04-12T04:23:27.428Z,7.90
2019-04-12T04:26:03.937Z,7.80
2019-04-12T04:28:47.625Z,7.90
2019-04-12T04:31:27.870Z,7.90
2019-04-12T04:33:56.749Z,7.90
2019-04-12T04:36:26.038Z,7.80
2019-04-12T04:38:55.333Z,7.70
2019-04-12T04:41:27.014Z,7.70
2019-04-12T04:43:56.035Z,7.70
2019-04-12T04:46:24.682Z,7.80
2019-04-12T04:48:53.914Z,7.70
2019-04-12T04:51:23.174Z,7.70
2019-04-12T04:53:52.145Z,7.70
2019-04-12T04:56:33.492Z,7.80
2019-04-12T04:58:52.936Z,7.80
2019-04-12T05:01:21.559Z,7.70
2019-04-12T05:03:50.962Z,7.70
2019-04-12T05:06:20.192Z,7.60
2019-04-12T05:08:49.058Z,7.80
2019-04-12T05:11:17.996Z,8.00
2019-04-12T05:13:46.903Z,8.00
2019-04-12T05:16:15.631Z,8.00
2019-04-12T05:18:44.487Z,8.10
2019-04-12T05:21:13.640Z,8.10
2019-04-12T05:23:42.554Z,8.20
2019-04-12T05:26:11.526Z,8.20
2019-04-12T05:28:40.573Z,8.10
2019-04-12T05:31:09.749Z,8.00
2019-04-12T05:33:39.118Z,8.00
2019-04-12T05:36:07.862Z,8.00
2019-04-12T05:38:36.390Z,8.10
2019-04-12T05:41:05.037Z,8.10
2019-04-12T05:43:35.310Z,8.00
2019-04-12T05:46:20.507Z,7.90
2019-04-12T05:48:59.663Z,8.00
2019-04-12T05:51:28.545Z,8.00
2019-04-12T05:54:01.913Z,8.00
2019-04-12T05:56:27.580Z,8.00
2019-04-12T05:59:14.388Z,8.00
2019-04-12T06:01:44.732Z,8.10
2019-04-12T06:04:13.598Z,8.10
2019-04-12T06:06:42.521Z,8.00
2019-04-12T06:09:11.463Z,8.10
2019-04-12T06:11:41.134Z,8.00
2019-04-12T06:14:10.098Z,8.10
2019-04-12T06:16:39.000Z,8.20
2019-04-12T06:19:08.600Z,8.20
2019-04-12T06:21:42.137Z,8.20
2019-04-12T06:24:10.790Z,8.30
2019-04-12T06:26:46.522Z,8.40
2019-04-12T06:29:15.067Z,8.40
2019-04-12T06:31:44.143Z,8.60
2019-04-12T06:34:12.906Z,8.70
2019-04-12T06:36:41.615Z,8.60
2019-04-12T06:39:10.629Z,8.60
2019-04-12T06:41:39.591Z,8.70
2019-04-12T06:44:08.586Z,8.80
2019-04-12T06:46:37.176Z,8.80
2019-04-12T06:49:06.195Z,8.80
2019-04-12T06:51:35.253Z,8.80
2019-04-12T06:54:04.270Z,8.80
2019-04-12T06:56:46.810Z,8.70
2019-04-12T06:59:15.561Z,8.60
2019-04-12T07:01:46.170Z,8.70
2019-04-12T07:04:25.306Z,8.70
2019-04-12T07:06:55.569Z,8.80
2019-04-12T07:09:24.728Z,9.00
2019-04-12T07:11:53.329Z,9.10
2019-04-12T07:14:21.891Z,9.10
2019-04-12T07:16:50.619Z,9.10
2019-04-12T07:19:19.597Z,9.10
2019-04-12T07:21:48.409Z,9.20
2019-04-12T07:24:17.301Z,9.30
2019-04-12T07:26:45.800Z,9.30
2019-04-12T07:29:14.727Z,9.30
2019-04-12T07:31:43.495Z,9.40
2019-04-12T07:34:11.996Z,9.40
2019-04-12T07:36:40.454Z,9.60
2019-04-12T07:39:09.266Z,9.70
2019-04-12T07:41:37.856Z,9.70
2019-04-12T07:44:07.747Z,9.80
2019-04-12T07:46:36.564Z,9.90
2019-04-12T07:49:05.398Z,10.00
2019-04-12T07:51:44.294Z,10.10
2019-04-12T07:54:14.519Z,10.30
2019-04-12T07:56:43.729Z,10.40
2019-04-12T07:59:14.220Z,10.40
2019-04-12T08:01:44.348Z,10.10
2019-04-12T08:04:17.126Z,10.00
2019-04-12T08:06:50.041Z,9.80
2019-04-12T08:09:18.505Z,9.80
2019-04-12T08:11:46.936Z,9.80
2019-04-12T08:14:15.467Z,9.80
2019-04-12T08:16:44.049Z,10.00
2019-04-12T08:19:13.003Z,10.10
2019-04-12T08:21:41.464Z,10.20
2019-04-12T08:24:09.972Z,10.10
2019-04-12T08:26:38.987Z,10.00
2019-04-12T08:29:07.771Z,9.70
2019-04-12T08:31:36.226Z,9.70
2019-04-12T08:34:04.989Z,9.60
2019-04-12T08:36:33.495Z,9.50
2019-04-12T08:39:02.011Z,9.40
2019-04-12T08:41:30.538Z,9.40
2019-04-12T08:43:59.138Z,9.40
2019-04-12T08:46:28.003Z,9.50
2019-04-12T08:48:56.957Z,9.60
2019-04-12T08:51:25.804Z,9.50
2019-04-12T08:53:54.352Z,9.40
2019-04-12T08:56:22.885Z,9.30
2019-04-12T08:58:51.496Z,9.30
2019-04-12T09:01:20.057Z,9.20
2019-04-12T09:03:51.813Z,9.10
2019-04-12T09:06:19.359Z,9.00
2019-04-12T09:08:49.650Z,9.10
2019-04-12T09:11:18.685Z,9.00
2019-04-12T09:13:47.408Z,9.10
2019-04-12T09:16:16.038Z,9.20
2019-04-12T09:18:46.168Z,9.30
2019-04-12T09:21:22.298Z,9.20
2019-04-12T09:23:55.475Z,9.20
2019-04-12T09:26:24.241Z,9.30
2019-04-12T09:28:54.135Z,9.40
2019-04-12T09:31:22.789Z,9.40
2019-04-12T09:33:51.699Z,9.40
2019-04-12T09:36:20.347Z,9.40
2019-04-12T09:38:48.951Z,9.30
2019-04-12T09:41:17.613Z,9.10
2019-04-12T09:43:46.160Z,9.00
2019-04-12T09:46:14.834Z,9.00
2019-04-12T09:48:43.432Z,9.10
2019-04-12T09:51:14.247Z,9.30
2019-04-12T09:53:42.351Z,9.30
2019-04-12T09:56:10.908Z,9.50
2019-04-12T09:58:39.784Z,9.50
2019-04-12T10:01:08.781Z,9.50
2019-04-12T10:03:37.483Z,9.50
2019-04-12T10:06:06.492Z,9.60
2019-04-12T10:08:35.045Z,9.70
2019-04-12T10:11:03.591Z,9.80
2019-04-12T10:13:32.082Z,9.70
2019-04-12T10:16:00.640Z,9.50
2019-04-12T10:18:29.591Z,9.20
2019-04-12T10:20:58.542Z,9.10
2019-04-12T10:23:27.457Z,9.10
2019-04-12T10:25:56.118Z,9.10
2019-04-12T10:28:24.625Z,9.10
2019-04-12T10:30:53.178Z,9.10
2019-04-12T10:33:21.678Z,9.10
2019-04-12T10:35:50.216Z,9.10
2019-04-12T10:38:19.145Z,9.20
2019-04-12T10:40:47.712Z,9.40
2019-04-12T10:43:16.275Z,9.60
2019-04-12T10:45:46.467Z,9.70
2019-04-12T10:48:22.414Z,9.60
2019-04-12T10:51:08.956Z,9.50
2019-04-12T10:53:39.140Z,9.40
2019-04-12T10:56:08.123Z,9.40
2019-04-12T10:58:37.006Z,9.40
2019-04-12T11:01:07.744Z,9.30
2019-04-12T11:03:36.701Z,9.40
2019-04-12T11:06:05.338Z,9.60
2019-04-12T11:08:34.326Z,9.60
2019-04-12T11:11:02.972Z,9.50
2019-04-12T11:13:31.710Z,9.40
2019-04-12T11:16:00.526Z,9.40
2019-04-12T11:18:29.069Z,9.50
2019-04-12T11:20:58.059Z,9.60
2019-04-12T11:23:26.869Z,9.70
2019-04-12T11:25:55.713Z,9.80
2019-04-12T11:28:24.606Z,9.90
2019-04-12T11:30:53.185Z,9.90
2019-04-12T11:33:22.075Z,9.80
2019-04-12T11:35:50.609Z,9.80
2019-04-12T11:38:19.420Z,9.80
2019-04-12T11:40:47.960Z,9.80
2019-04-12T11:43:16.771Z,9.80
2019-04-12T11:45:46.414Z,9.80
2019-04-12T11:48:14.977Z,9.80
2019-04-12T11:50:43.608Z,9.70
2019-04-12T11:53:12.103Z,9.70
2019-04-12T11:55:40.667Z,9.80
2019-04-12T11:58:09.488Z,9.70
2019-04-12T12:00:56.409Z,9.80
2019-04-12T12:03:38.243Z,9.80
2019-04-12T12:06:09.047Z,9.80
2019-04-12T12:08:39.195Z,9.80
2019-04-12T12:11:18.028Z,9.90
2019-04-12T12:13:48.210Z,10.00
2019-04-12T12:16:34.254Z,10.00
2019-04-12T12:19:07.509Z,10.00
2019-04-12T12:21:35.990Z,9.90
2019-04-12T12:24:04.870Z,9.90
2019-04-12T12:26:33.443Z,9.90
2019-04-12T12:29:02.024Z,9.80
2019-04-12T12:31:30.621Z,9.90
2019-04-12T12:33:59.178Z,9.80
2019-04-12T12:36:28.412Z,9.80
2019-04-12T12:38:56.983Z,9.80
2019-04-12T12:41:25.484Z,9.80
2019-04-12T12:43:54.101Z,9.90
2019-04-12T12:46:23.123Z,9.90
2019-04-12T12:48:51.711Z,9.80
2019-04-12T12:51:20.600Z,9.90
2019-04-12T12:53:49.042Z,10.00
2019-04-12T12:56:17.561Z,10.00
2019-04-12T12:58:46.560Z,9.90
2019-04-12T13:01:15.158Z,9.80
2019-04-12T13:03:44.726Z,9.70
2019-04-12T13:06:13.724Z,9.70
2019-04-12T13:08:42.557Z,9.70
2019-04-12T13:11:11.153Z,9.70
2019-04-12T13:13:40.114Z,9.80
2019-04-12T13:16:08.670Z,9.90
2019-04-12T13:18:37.636Z,9.90
2019-04-12T13:21:06.193Z,9.90
2019-04-12T13:23:35.244Z,10.00
2019-04-12T13:26:05.192Z,10.00
2019-04-12T13:28:36.893Z,9.80
2019-04-12T13:31:18.242Z,9.80
2019-04-12T13:34:04.979Z,9.80
2019-04-12T13:36:35.215Z,9.70
2019-04-12T13:39:09.899Z,9.80
2019-04-12T13:41:38.481Z,9.80
2019-04-12T13:44:07.462Z,9.80
2019-04-12T13:46:36.480Z,9.80
2019-04-12T13:49:05.228Z,9.90
2019-04-12T13:51:34.131Z,9.90
2019-04-12T13:54:03.783Z,9.90
2019-04-12T13:56:32.775Z,10.00
2019-04-12T13:59:01.672Z,10.60
2019-04-12T14:01:30.212Z,10.60
2019-04-12T14:03:59.225Z,10.30
2019-04-12T14:06:27.933Z,10.20
2019-04-12T14:08:56.771Z,10.00
2019-04-12T14:11:25.633Z,9.80
2019-04-12T14:13:54.314Z,9.60
2019-04-12T14:16:23.504Z,9.50
2019-04-12T14:18:52.078Z,9.40
2019-04-12T14:21:20.658Z,9.50
2019-04-12T14:23:49.217Z,9.40
2019-04-12T14:26:18.238Z,9.30
2019-04-12T14:28:47.263Z,9.20
2019-04-12T14:31:17.983Z,9.30
2019-04-12T14:34:00.479Z,9.20
2019-04-12T14:36:36.070Z,9.30
2019-04-12T14:39:07.842Z,9.30
2019-04-12T14:41:36.920Z,9.40
2019-04-12T14:44:25.550Z,9.40
2019-04-12T14:47:01.877Z,9.30
2019-04-12T14:49:30.782Z,9.40
2019-04-12T14:51:59.683Z,9.40
2019-04-12T14:54:28.352Z,9.40
2019-04-12T14:56:56.975Z,9.20
2019-04-12T14:59:25.576Z,9.00
2019-04-12T15:01:54.540Z,9.00
2019-04-12T15:04:23.171Z,9.00
2019-04-12T15:06:51.748Z,9.00
2019-04-12T15:09:20.357Z,9.00
2019-04-12T15:11:49.331Z,8.90
2019-04-12T15:14:18.612Z,8.90
2019-04-12T15:16:47.748Z,8.80
2019-04-12T15:19:16.676Z,8.80
2019-04-12T15:21:45.441Z,8.80
2019-04-12T15:24:14.132Z,8.80
2019-04-12T15:26:42.687Z,8.70
2019-04-12T15:29:11.537Z,8.80
2019-04-12T15:31:40.475Z,8.70
2019-04-12T15:34:09.059Z,8.60
2019-04-12T15:36:38.082Z,8.60
2019-04-12T15:39:08.759Z,8.70
2019-04-12T15:41:37.710Z,8.80
2019-04-12T15:44:06.381Z,8.90
2019-04-12T15:46:34.956Z,8.90
2019-04-12T15:49:03.729Z,9.00
2019-04-12T15:51:32.631Z,9.00
2019-04-12T15:54:01.304Z,9.00
2019-04-12T15:56:30.161Z,9.00
2019-04-12T15:58:59.294Z,9.10
2019-04-12T16:01:28.361Z,9.10
2019-04-12T16:03:58.826Z,9.10
2019-04-12T16:06:28.322Z,9.00
2019-04-12T16:09:16.316Z,9.00
2019-04-12T16:11:48.402Z,9.20
2019-04-12T16:14:19.942Z,9.10
2019-04-12T16:17:03.448Z,9.10
2019-04-12T16:19:32.095Z,9.10
2019-04-12T16:22:01.576Z,9.10
2019-04-12T16:24:30.435Z,9.20
2019-04-12T16:26:58.985Z,9.30
2019-04-12T16:29:44.447Z,9.10
2019-04-12T16:32:31.119Z,9.10
2019-04-12T16:35:03.821Z,9.10
2019-04-12T16:37:39.813Z,9.10
2019-04-12T16:40:08.687Z,9.10
2019-04-12T16:42:37.271Z,8.90
2019-04-12T16:45:07.162Z,8.90
2019-04-12T16:47:36.013Z,9.00
2019-04-12T16:50:07.659Z,9.00
2019-04-12T16:52:36.204Z,9.10
2019-04-12T16:55:06.801Z,9.10
2019-04-12T16:57:35.346Z,8.90
2019-04-12T17:00:06.765Z,8.90
2019-04-12T17:02:35.715Z,8.80
2019-04-12T17:05:06.076Z,8.70
2019-04-12T17:07:34.694Z,8.60
2019-04-12T17:10:03.952Z,8.60
2019-04-12T17:12:32.583Z,8.60
2019-04-12T17:15:01.172Z,8.50
2019-04-12T17:17:30.121Z,8.50
2019-04-12T17:19:59.127Z,8.50
2019-04-12T17:22:27.717Z,8.50
2019-04-12T17:25:06.028Z,8.50
2019-04-12T17:27:26.690Z,8.50
2019-04-12T17:29:55.253Z,8.50
2019-04-12T17:32:23.916Z,8.40
2019-04-12T17:34:52.467Z,8.50
2019-04-12T17:37:21.491Z,8.60
2019-04-12T17:39:50.053Z,8.60
2019-04-12T17:42:18.796Z,8.50
2019-04-12T17:44:47.387Z,8.60
2019-04-12T17:47:15.984Z,8.60
2019-04-12T17:49:48.874Z,8.60
2019-04-12T17:52:35.308Z,8.60
2019-04-12T17:55:06.085Z,8.50
2019-04-12T17:57:35.028Z,8.30
2019-04-12T18:00:06.265Z,8.20
2019-04-12T18:02:36.873Z,8.30
2019-04-12T18:05:08.376Z,8.20
2019-04-12T18:07:37.304Z,8.20
2019-04-12T18:10:08.253Z,8.10
2019-04-12T18:12:37.299Z,7.90
2019-04-12T18:15:08.921Z,7.90
2019-04-12T18:17:37.542Z,7.80
2019-04-12T18:20:07.084Z,7.80
2019-04-12T18:22:35.756Z,7.70
2019-04-12T18:25:06.207Z,7.60
2019-04-12T18:27:34.782Z,7.70
2019-04-12T18:30:04.093Z,7.70
2019-04-12T18:32:33.031Z,7.60
2019-04-12T18:35:01.694Z,7.70
2019-04-12T18:37:30.303Z,7.70
2019-04-12T18:39:58.919Z,7.60
2019-04-12T18:42:27.462Z,7.60
2019-04-12T18:44:56.366Z,7.70
2019-04-12T18:47:24.894Z,7.60
2019-04-12T18:49:53.560Z,7.60
2019-04-12T18:52:22.128Z,7.60
2019-04-12T18:54:50.692Z,7.60
2019-04-12T18:57:19.334Z,7.60
2019-04-12T18:59:48.433Z,7.50
2019-04-12T19:02:26.611Z,7.40
2019-04-12T19:04:47.378Z,7.30
2019-04-12T19:07:17.208Z,7.20
2019-04-12T19:09:45.919Z,7.10
2019-04-12T19:12:14.930Z,7.10
2019-04-12T19:14:43.613Z,7.20
2019-04-12T19:17:17.302Z,7.20
2019-04-12T19:19:46.431Z,7.30
2019-04-12T19:22:15.116Z,7.30
2019-04-12T19:24:43.757Z,7.30
2019-04-12T19:27:12.362Z,7.20
2019-04-12T19:29:41.117Z,7.10
2019-04-12T19:32:17.963Z,7.10
2019-04-12T19:35:04.770Z,7.10
2019-04-12T19:37:52.874Z,7.00
2019-04-12T19:40:34.714Z,7.00
2019-04-12T19:43:04.472Z,7.00
2019-04-12T19:45:33.409Z,6.90
2019-04-12T19:48:02.405Z,6.90
2019-04-12T19:50:31.385Z,6.70
2019-04-12T19:53:00.001Z,6.60
2019-04-12T19:55:29.092Z,6.50
2019-04-12T19:57:57.683Z,6.40
2019-04-12T20:00:26.247Z,6.40
2019-04-12T20:02:55.205Z,6.30
2019-04-12T20:05:24.204Z,6.40
2019-04-12T20:07:52.989Z,6.50
2019-04-12T20:10:21.582Z,6.50
2019-04-12T20:12:50.679Z,6.60
2019-04-12T20:15:19.276Z,6.70
2019-04-12T20:17:47.969Z,6.80
2019-04-12T20:20:17.097Z,6.80
2019-04-12T20:22:46.067Z,6.80
2019-04-12T20:25:14.729Z,6.80
2019-04-12T20:27:43.333Z,6.80
2019-04-12T20:30:12.027Z,6.90
2019-04-12T20:32:40.615Z,6.80
2019-04-12T20:35:09.293Z,6.80
2019-04-12T20:37:37.854Z,6.80
2019-04-12T20:40:08.035Z,6.80
2019-04-12T20:42:36.581Z,6.80
2019-04-12T20:45:07.345Z,6.70
2019-04-12T20:47:36.040Z,6.80
2019-04-12T20:50:06.574Z,6.90
2019-04-12T20:52:35.620Z,6.90
2019-04-12T20:55:05.938Z,6.90
2019-04-12T20:57:34.495Z,6.80
2019-04-12T21:00:03.718Z,6.80
2019-04-12T21:02:39.985Z,6.70
2019-04-12T21:05:02.610Z,6.70
2019-04-12T21:07:31.627Z,6.70
2019-04-12T21:10:00.336Z,6.80
2019-04-12T21:12:29.019Z,6.80
2019-04-12T21:14:57.627Z,6.80
2019-04-12T21:17:26.259Z,6.70
2019-04-12T21:19:54.883Z,6.70
2019-04-12T21:22:23.740Z,6.70
2019-04-12T21:24:52.368Z,6.60
2019-04-12T21:27:21.428Z,6.70
2019-04-12T21:29:49.992Z,6.60
2019-04-12T21:32:18.702Z,6.50
2019-04-12T21:34:47.453Z,6.50
2019-04-12T21:37:16.132Z,6.40
2019-04-12T21:39:45.035Z,6.40
2019-04-12T21:42:13.965Z,6.30
2019-04-12T21:44:42.966Z,6.30
2019-04-12T21:47:11.564Z,6.30
2019-04-12T21:49:40.194Z,6.30
2019-04-12T21:52:08.778Z,6.30
2019-04-12T21:54:37.713Z,6.30
2019-04-12T21:57:06.374Z,6.20
2019-04-12T21:59:35.035Z,6.20
2019-04-12T22:02:05.058Z,6.20
2019-04-12T22:04:34.230Z,6.20
2019-04-12T22:07:03.015Z,6.10
2019-04-12T22:09:31.627Z,6.10
2019-04-12T22:12:00.465Z,6.20
2019-04-12T22:14:29.427Z,6.20
2019-04-12T22:16:58.415Z,6.20
2019-04-12T22:19:27.301Z,6.10
2019-04-12T22:21:55.982Z,6.10
2019-04-12T22:24:24.587Z,6.20
2019-04-12T22:26:53.611Z,6.20
2019-04-12T22:29:22.169Z,6.20
2019-04-12T22:31:52.461Z,6.30
2019-04-12T22:34:21.007Z,6.30
2019-04-12T22:36:49.534Z,6.50
2019-04-12T22:39:18.481Z,6.60
2019-04-12T22:41:47.467Z,6.50
2019-04-12T22:44:15.998Z,6.50
2019-04-12T22:46:44.910Z,6.50
2019-04-12T22:49:13.554Z,6.60
2019-04-12T22:51:42.136Z,6.60
2019-04-12T22:54:10.784Z,6.50
2019-04-12T22:56:39.719Z,6.50
2019-04-12T22:59:08.308Z,6.40
2019-04-12T23:01:36.988Z,6.40
2019-04-12T23:04:05.967Z,6.30
2019-04-12T23:06:34.983Z,6.40
2019-04-12T23:09:05.287Z,6.50
2019-04-12T23:11:33.893Z,6.50
2019-04-12T23:14:02.841Z,6.50
2019-04-12T23:16:31.418Z,6.50
2019-04-12T23:19:00.307Z,6.50
2019-04-12T23:21:29.310Z,6.50
2019-04-12T23:23:58.287Z,6.50
2019-04-12T23:26:27.211Z,6.40
2019-04-12T23:28:55.840Z,6.50
2019-04-12T23:31:26.017Z,6.50
2019-04-12T23:33:56.362Z,6.50
2019-04-12T23:36:26.564Z,6.50
2019-04-12T23:38:55.604Z,6.40
2019-04-12T23:41:24.539Z,6.40
2019-04-12T23:43:53.146Z,6.30
2019-04-12T23:46:23.498Z,6.30
2019-04-12T23:48:52.079Z,6.30
2019-04-12T23:51:20.929Z,6.40
2019-04-12T23:53:49.878Z,6.50
2019-04-12T23:56:18.806Z,6.40
2019-04-12T23:58:47.363Z,6.40
